createdAt,value
2023-01-07T00:01:33.143Z,96015.47
2023-01-07T00:03:31.729Z,96014.50
2023-01-07T00:05:29.908Z,96017.69
2023-01-07T00:07:28.283Z,96011.72
2023-01-07T00:09:26.451Z,96022.09
2023-01-07T00:11:26.643Z,96012.78
2023-01-07T00:13:26.305Z,96017.88
2023-01-07T00:15:24.422Z,96015.34
2023-01-07T00:17:22.850Z,96020.56
2023-01-07T00:19:22.326Z,96021.97
2023-01-07T00:21:22.230Z,96024.66
2023-01-07T00:23:20.494Z,96021.38
2023-01-07T00:25:18.785Z,96017.19
2023-01-07T00:27:17.523Z,96021.47
2023-01-07T00:29:18.807Z,96021.38
2023-01-07T00:31:19.126Z,96028.22
2023-01-07T00:33:18.324Z,96026.41
2023-01-07T00:35:23.355Z,96026.41
2023-01-07T00:37:39.140Z,96025.63
2023-01-07T00:39:37.504Z,96016.44
2023-01-07T00:41:36.177Z,96023.34
2023-01-07T00:43:34.463Z,96026.03
2023-01-07T00:45:35.965Z,96026.19
2023-01-07T00:47:34.260Z,96022.75
2023-01-07T00:49:32.552Z,96026.34
2023-01-07T00:51:30.771Z,96035.03
2023-01-07T00:53:30.459Z,96024.66
2023-01-07T00:55:29.482Z,96036.59
2023-01-07T00:57:27.693Z,96029.81
2023-01-07T00:59:26.033Z,96034.91
2023-01-07T01:01:25.735Z,96035.03
2023-01-07T01:03:24.505Z,96029.00
2023-01-07T01:05:23.176Z,96035.31
2023-01-07T01:07:21.295Z,96032.16
2023-01-07T01:09:21.509Z,96036.78
2023-01-07T01:11:19.756Z,96044.03
2023-01-07T01:13:19.477Z,96036.16
2023-01-07T01:15:18.751Z,96040.59
2023-01-07T01:17:18.836Z,96049.31
2023-01-07T01:19:17.670Z,96049.47
2023-01-07T01:21:17.291Z,96047.66
2023-01-07T01:23:15.629Z,96044.28
2023-01-07T01:25:14.190Z,96040.97
2023-01-07T01:27:12.326Z,96041.00
2023-01-07T01:29:10.771Z,96049.59
2023-01-07T01:31:09.805Z,96046.28
2023-01-07T01:33:27.692Z,96045.97
2023-01-07T01:35:26.851Z,96049.38
2023-01-07T01:37:26.210Z,96043.91
2023-01-07T01:39:25.447Z,96041.47
2023-01-07T01:41:23.789Z,96041.47
2023-01-07T01:43:31.013Z,96043.19
2023-01-07T01:45:30.582Z,96041.31
2023-01-07T01:47:36.881Z,96031.72
2023-01-07T01:49:40.209Z,96028.28
2023-01-07T01:51:42.642Z,96032.66
2023-01-07T01:53:41.001Z,96041.25
2023-01-07T01:55:41.723Z,96032.84
2023-01-07T01:57:40.628Z,96032.44
2023-01-07T01:59:42.184Z,96032.59
2023-01-07T02:01:42.558Z,96019.91
2023-01-07T02:03:45.811Z,96026.84
2023-01-07T02:05:50.222Z,96026.19
2023-01-07T02:07:48.435Z,96020.06
2023-01-07T02:09:47.804Z,96025.09
2023-01-07T02:11:52.959Z,96028.41
2023-01-07T02:14:02.789Z,96026.72
2023-01-07T02:16:10.155Z,96017.41
2023-01-07T02:18:22.769Z,96021.91
2023-01-07T02:20:40.752Z,96025.16
2023-01-07T02:23:04.142Z,96019.22
2023-01-07T02:25:43.400Z,96023.13
2023-01-07T02:28:11.012Z,96020.50
2023-01-07T02:30:39.765Z,96017.69
2023-01-07T02:33:12.312Z,96018.91
2023-01-07T02:35:22.349Z,96019.91
2023-01-07T02:37:31.586Z,96019.78
2023-01-07T02:39:45.036Z,96022.50
2023-01-07T02:41:56.253Z,96015.97
2023-01-07T02:43:58.429Z,96015.25
2023-01-07T02:46:04.620Z,96031.91
2023-01-07T02:48:08.443Z,96029.41
2023-01-07T02:50:08.333Z,96028.38
2023-01-07T02:52:22.263Z,96019.53
2023-01-07T02:54:24.822Z,96023.72
2023-01-07T02:56:33.127Z,96031.59
2023-01-07T02:58:57.446Z,96021.16
2023-01-07T03:01:21.926Z,96022.72
2023-01-07T03:03:39.622Z,96023.72
2023-01-07T03:05:50.363Z,96029.94
2023-01-07T03:07:59.412Z,96026.31
2023-01-07T03:10:04.352Z,96024.50
2023-01-07T03:12:09.848Z,96028.59
2023-01-07T03:14:15.810Z,96029.31
2023-01-07T03:16:21.572Z,96024.31
2023-01-07T03:18:25.116Z,96032.84
2023-01-07T03:20:26.356Z,96025.50
2023-01-07T03:22:28.007Z,96028.38
2023-01-07T03:24:29.243Z,96032.00
2023-01-07T03:26:32.916Z,96029.66
2023-01-07T03:28:35.293Z,96029.75
2023-01-07T03:30:34.713Z,96029.06
2023-01-07T03:32:39.638Z,96019.72
2023-01-07T03:34:39.575Z,96022.97
2023-01-07T03:36:43.275Z,96034.09
2023-01-07T03:38:45.289Z,96031.41
2023-01-07T03:40:43.877Z,96033.91
2023-01-07T03:42:41.723Z,96035.59
2023-01-07T03:44:49.549Z,96038.22
2023-01-07T03:46:50.169Z,96028.75
2023-01-07T03:48:48.336Z,96033.81
2023-01-07T03:50:46.837Z,96030.25
2023-01-07T03:52:48.627Z,96035.41
2023-01-07T03:54:48.504Z,96031.06
2023-01-07T03:56:47.378Z,96038.63
2023-01-07T03:58:45.602Z,96034.28
2023-01-07T04:00:43.979Z,96031.63
2023-01-07T04:02:47.776Z,96040.22
2023-01-07T04:04:53.227Z,96039.94
2023-01-07T04:06:52.534Z,96038.03
2023-01-07T04:08:52.189Z,96045.50
2023-01-07T04:10:50.573Z,96046.97
2023-01-07T04:12:49.410Z,96043.94
2023-01-07T04:14:47.540Z,96056.78
2023-01-07T04:16:46.382Z,96051.97
2023-01-07T04:18:44.702Z,96051.97
2023-01-07T04:20:47.460Z,96051.78
2023-01-07T04:22:46.637Z,96050.69
2023-01-07T04:24:47.360Z,96051.53
2023-01-07T04:26:46.897Z,96055.88
2023-01-07T04:28:45.109Z,96050.09
2023-01-07T04:30:43.657Z,96051.88
2023-01-07T04:32:41.997Z,96058.06
2023-01-07T04:34:41.518Z,96053.91
2023-01-07T04:36:40.183Z,96058.25
2023-01-07T04:38:38.493Z,96063.19
2023-01-07T04:40:38.243Z,96063.88
2023-01-07T04:42:36.458Z,96059.53
2023-01-07T04:44:35.356Z,96068.22
2023-01-07T04:46:33.734Z,96067.44
2023-01-07T04:48:32.520Z,96070.94
2023-01-07T04:50:31.146Z,96066.75
2023-01-07T04:52:29.653Z,96067.69
2023-01-07T04:54:31.120Z,96064.38
2023-01-07T04:56:31.554Z,96066.88
2023-01-07T04:58:30.112Z,96073.72
2023-01-07T05:00:28.822Z,96070.94
2023-01-07T05:02:27.265Z,96071.03
2023-01-07T05:04:25.887Z,96065.78
2023-01-07T05:06:24.387Z,96063.81
2023-01-07T05:08:22.981Z,96058.63
2023-01-07T05:10:21.746Z,96067.16
2023-01-07T05:12:21.437Z,96059.25
2023-01-07T05:14:19.960Z,96061.16
2023-01-07T05:16:22.045Z,96068.16
2023-01-07T05:18:21.661Z,96065.88
2023-01-07T05:20:20.051Z,96067.13
2023-01-07T05:22:18.697Z,96071.03
2023-01-07T05:24:17.942Z,96076.47
2023-01-07T05:26:19.671Z,96079.16
2023-01-07T05:28:19.262Z,96085.34
2023-01-07T05:30:17.560Z,96085.47
2023-01-07T05:32:17.045Z,96083.03
2023-01-07T05:34:15.372Z,96089.91
2023-01-07T05:36:16.525Z,96086.66
2023-01-07T05:38:16.286Z,96080.78
2023-01-07T05:40:15.216Z,96091.97
2023-01-07T05:42:13.653Z,96081.72
2023-01-07T05:44:13.317Z,96091.19
2023-01-07T05:46:11.644Z,96082.56
2023-01-07T05:48:10.180Z,96079.97
2023-01-07T05:50:09.048Z,96079.06
2023-01-07T05:52:07.738Z,96081.66
2023-01-07T05:54:07.445Z,96097.09
2023-01-07T05:56:06.107Z,96095.41
2023-01-07T05:58:04.404Z,96087.75
2023-01-07T06:00:04.993Z,96088.69
2023-01-07T06:02:10.007Z,96083.38
2023-01-07T06:04:08.743Z,96091.63
2023-01-07T06:06:08.319Z,96091.13
2023-01-07T06:08:07.237Z,96088.25
2023-01-07T06:10:07.037Z,96099.19
2023-01-07T06:12:05.716Z,96091.38
2023-01-07T06:14:04.306Z,96095.75
2023-01-07T06:16:07.178Z,96094.25
2023-01-07T06:18:05.696Z,96093.56
2023-01-07T06:20:04.972Z,96092.00
2023-01-07T06:22:04.291Z,96105.84
2023-01-07T06:24:05.621Z,96096.19
2023-01-07T06:26:03.779Z,96095.94
2023-01-07T06:28:02.551Z,96090.09
2023-01-07T06:30:00.591Z,96094.88
2023-01-07T06:32:01.382Z,96103.75
2023-01-07T06:34:00.347Z,96092.63
2023-01-07T06:35:58.420Z,96100.78
2023-01-07T06:37:57.998Z,96101.84
2023-01-07T06:39:56.223Z,96101.56
2023-01-07T06:41:57.177Z,96099.22
2023-01-07T06:43:57.643Z,96104.59
2023-01-07T06:45:57.165Z,96096.31
2023-01-07T06:47:58.643Z,96098.13
2023-01-07T06:49:56.981Z,96107.53
2023-01-07T06:51:55.141Z,96102.41
2023-01-07T06:53:53.305Z,96111.28
2023-01-07T06:55:52.684Z,96101.56
2023-01-07T06:57:50.991Z,96107.78
2023-01-07T06:59:52.357Z,96109.88
2023-01-07T07:01:50.741Z,96109.28
2023-01-07T07:03:50.791Z,96120.19
2023-01-07T07:05:49.050Z,96110.31
2023-01-07T07:07:47.580Z,96115.56
2023-01-07T07:09:45.950Z,96117.75
2023-01-07T07:11:46.973Z,96121.41
2023-01-07T07:13:46.108Z,96106.78
2023-01-07T07:15:47.461Z,96117.25
2023-01-07T07:17:46.919Z,96115.72
2023-01-07T07:19:46.546Z,96106.16
2023-01-07T07:21:44.701Z,96119.94
2023-01-07T07:23:43.123Z,96116.72
2023-01-07T07:25:41.888Z,96118.66
2023-01-07T07:27:45.501Z,96119.03
2023-01-07T07:29:44.573Z,96120.47
2023-01-07T07:31:42.892Z,96121.19
2023-01-07T07:33:41.795Z,96121.88
2023-01-07T07:35:41.754Z,96119.75
2023-01-07T07:37:40.982Z,96117.78
2023-01-07T07:39:39.736Z,96116.34
2023-01-07T07:41:38.041Z,96113.75
2023-01-07T07:43:39.908Z,96107.22
2023-01-07T07:45:40.839Z,96116.50
2023-01-07T07:47:38.935Z,96119.31
2023-01-07T07:49:37.155Z,96108.56
2023-01-07T07:51:36.808Z,96110.97
2023-01-07T07:53:35.110Z,96111.19
2023-01-07T07:55:33.503Z,96113.66
2023-01-07T07:57:34.406Z,96111.31
2023-01-07T07:59:34.835Z,96115.91
2023-01-07T08:01:34.741Z,96108.84
2023-01-07T08:03:34.240Z,96113.00
2023-01-07T08:05:32.914Z,96108.50
2023-01-07T08:07:34.790Z,96109.88
2023-01-07T08:09:33.981Z,96114.88
2023-01-07T08:11:32.152Z,96113.75
2023-01-07T08:13:32.241Z,96115.97
2023-01-07T08:15:30.366Z,96113.09
2023-01-07T08:17:28.547Z,96117.38
2023-01-07T08:19:27.468Z,96107.72
2023-01-07T08:21:25.674Z,96116.63
2023-01-07T08:23:28.279Z,96115.38
2023-01-07T08:25:30.078Z,96114.53
2023-01-07T08:27:29.047Z,96117.25
2023-01-07T08:29:30.290Z,96112.91
2023-01-07T08:31:28.730Z,96111.00
2023-01-07T08:33:26.977Z,96112.94
2023-01-07T08:35:27.432Z,96109.50
2023-01-07T08:37:30.179Z,96103.84
2023-01-07T08:39:29.821Z,96107.13
2023-01-07T08:41:28.147Z,96106.13
2023-01-07T08:43:26.741Z,96110.78
2023-01-07T08:45:24.868Z,96104.94
2023-01-07T08:47:23.674Z,96097.44
2023-01-07T08:49:22.484Z,96093.19
2023-01-07T08:51:21.819Z,96100.88
2023-01-07T08:53:20.304Z,96098.25
2023-01-07T08:55:20.381Z,96085.88
2023-01-07T08:57:20.081Z,96084.34
2023-01-07T08:59:20.028Z,96074.53
2023-01-07T09:01:18.555Z,96072.72
2023-01-07T09:03:16.981Z,96064.25
2023-01-07T09:05:15.480Z,96068.09
2023-01-07T09:07:14.330Z,96061.13
2023-01-07T09:09:15.176Z,96057.38
2023-01-07T09:11:15.172Z,96051.16
2023-01-07T09:13:13.427Z,96048.44
2023-01-07T09:15:12.940Z,96036.81
2023-01-07T09:17:11.476Z,96036.91
2023-01-07T09:19:09.679Z,96040.41
2023-01-07T09:21:08.045Z,96042.53
2023-01-07T09:23:08.967Z,96035.88
2023-01-07T09:25:11.771Z,96038.34
2023-01-07T09:27:11.525Z,96021.13
2023-01-07T09:29:13.531Z,96030.06
2023-01-07T09:31:11.769Z,96031.00
2023-01-07T09:33:10.726Z,96022.88
2023-01-07T09:35:11.289Z,96020.50
2023-01-07T09:37:09.798Z,96019.44
2023-01-07T09:39:11.744Z,96020.63
2023-01-07T09:41:22.127Z,96012.34
2023-01-07T09:43:59.971Z,96007.00
2023-01-07T09:45:50.255Z,95997.22
2023-01-07T09:47:52.260Z,95996.84
2023-01-07T09:49:55.931Z,95990.09
2023-01-07T09:51:58.922Z,95983.63
2023-01-07T09:53:59.695Z,95977.66
2023-01-07T09:56:11.052Z,95971.78
2023-01-07T09:58:17.084Z,95971.53
2023-01-07T10:00:20.593Z,95967.91
2023-01-07T10:02:32.229Z,95968.56
2023-01-07T10:04:39.346Z,95963.88
2023-01-07T10:06:45.694Z,95956.06
2023-01-07T10:09:04.311Z,95953.53
2023-01-07T10:11:12.343Z,95956.72
2023-01-07T10:13:27.369Z,95944.94
2023-01-07T10:15:39.336Z,95947.34
2023-01-07T10:17:54.227Z,95940.41
2023-01-07T10:20:05.625Z,95940.00
2023-01-07T10:22:12.283Z,95929.84
2023-01-07T10:24:21.778Z,95926.38
2023-01-07T10:26:29.189Z,95923.22
2023-01-07T10:28:37.539Z,95921.09
2023-01-07T10:30:44.107Z,95916.34
2023-01-07T10:32:43.561Z,95908.50
2023-01-07T10:34:47.603Z,95913.84
2023-01-07T10:37:01.583Z,95901.63
2023-01-07T10:39:15.300Z,95900.72
2023-01-07T10:41:24.273Z,95897.72
2023-01-07T10:43:34.737Z,95891.09
2023-01-07T10:45:53.978Z,95887.72
2023-01-07T10:48:16.076Z,95884.66
2023-01-07T10:50:34.254Z,95883.41
2023-01-07T10:52:42.381Z,95873.88
2023-01-07T10:55:14.132Z,95863.09
2023-01-07T10:57:18.573Z,95860.72
2023-01-07T10:59:21.000Z,95864.66
2023-01-07T11:01:26.056Z,95867.66
2023-01-07T11:03:26.582Z,95863.22
2023-01-07T11:05:29.922Z,95867.19
2023-01-07T11:07:34.731Z,95856.41
2023-01-07T11:09:37.240Z,95855.56
2023-01-07T11:11:35.471Z,95851.13
2023-01-07T11:13:37.159Z,95836.25
2023-01-07T11:15:38.242Z,95850.91
2023-01-07T11:17:42.742Z,95840.09
2023-01-07T11:19:46.382Z,95842.16
2023-01-07T11:21:48.719Z,95838.88
2023-01-07T11:23:49.190Z,95834.66
2023-01-07T11:25:48.020Z,95831.28
2023-01-07T11:27:47.009Z,95823.53
2023-01-07T11:29:47.072Z,95827.91
2023-01-07T11:31:50.241Z,95831.13
2023-01-07T11:34:01.834Z,95825.94
2023-01-07T11:36:02.962Z,95827.44
2023-01-07T11:38:02.775Z,95828.19
2023-01-07T11:40:02.918Z,95826.47
2023-01-07T11:42:23.941Z,95820.81
2023-01-07T11:44:22.459Z,95823.97
2023-01-07T11:46:25.858Z,95820.75
2023-01-07T11:48:30.551Z,95810.38
2023-01-07T11:50:36.232Z,95811.31
2023-01-07T11:52:34.573Z,95809.41
2023-01-07T11:54:34.141Z,95812.28
2023-01-07T11:56:34.110Z,95804.16
2023-01-07T11:58:34.883Z,95800.28
2023-01-07T12:00:33.212Z,95799.31
2023-01-07T12:02:31.933Z,95794.28
2023-01-07T12:04:33.427Z,95794.75
2023-01-07T12:06:36.245Z,95790.81
2023-01-07T12:08:34.713Z,95782.34
2023-01-07T12:10:36.278Z,95789.88
2023-01-07T12:12:37.212Z,95774.69
2023-01-07T12:14:41.386Z,95772.53
2023-01-07T12:16:39.662Z,95774.69
2023-01-07T12:19:06.027Z,95776.34
2023-01-07T12:21:29.307Z,95779.56
2023-01-07T12:23:40.718Z,95767.38
2023-01-07T12:25:51.392Z,95758.75
2023-01-07T12:27:58.171Z,95767.25
2023-01-07T12:30:11.389Z,95751.69
2023-01-07T12:32:28.098Z,95761.28
2023-01-07T12:34:36.581Z,95759.59
2023-01-07T12:36:41.112Z,95759.47
2023-01-07T12:38:45.355Z,95751.81
2023-01-07T12:40:48.981Z,95756.25
2023-01-07T12:42:51.956Z,95755.50
2023-01-07T12:44:53.162Z,95757.16
2023-01-07T12:47:30.480Z,95751.41
2023-01-07T12:49:26.849Z,95753.53
2023-01-07T12:51:30.645Z,95751.66
2023-01-07T12:53:37.616Z,95757.28
2023-01-07T12:55:41.401Z,95750.69
2023-01-07T12:57:42.708Z,95752.50
2023-01-07T12:59:46.478Z,95750.22
2023-01-07T13:01:52.610Z,95751.19
2023-01-07T13:04:02.635Z,95751.19
2023-01-07T13:06:06.027Z,95752.25
2023-01-07T13:08:14.039Z,95747.44
2023-01-07T13:10:17.937Z,95751.50
2023-01-07T13:12:46.154Z,95750.06
2023-01-07T13:14:50.020Z,95746.22
2023-01-07T13:16:48.255Z,95744.53
2023-01-07T13:18:46.599Z,95748.59
2023-01-07T13:20:57.878Z,95749.66
2023-01-07T13:22:58.023Z,95743.22
2023-01-07T13:25:15.267Z,95736.53
2023-01-07T13:27:23.138Z,95751.84
2023-01-07T13:29:31.251Z,95740.00
2023-01-07T13:31:56.195Z,95739.88
2023-01-07T13:34:01.911Z,95741.75
2023-01-07T13:36:11.181Z,95743.91
2023-01-07T13:38:34.181Z,95738.63
2023-01-07T13:40:58.263Z,95740.44
2023-01-07T13:43:10.925Z,95743.44
2023-01-07T13:45:14.964Z,95741.13
2023-01-07T13:47:17.163Z,95743.91
2023-01-07T13:49:30.098Z,95738.75
2023-01-07T13:51:31.895Z,95744.78
2023-01-07T13:53:46.951Z,95738.56
2023-01-07T13:55:46.944Z,95740.66
2023-01-07T13:57:46.696Z,95734.19
2023-01-07T13:59:52.765Z,95738.72
2023-01-07T14:02:16.786Z,95738.59
2023-01-07T14:04:48.396Z,95739.09
2023-01-07T14:06:50.021Z,95735.38
2023-01-07T14:08:54.124Z,95743.25
2023-01-07T14:10:54.749Z,95736.53
2023-01-07T14:13:13.198Z,95743.19
2023-01-07T14:15:44.546Z,95738.78
2023-01-07T14:17:57.010Z,95746.84
2023-01-07T14:20:04.513Z,95733.03
2023-01-07T14:22:12.102Z,95744.56
2023-01-07T14:24:32.091Z,95741.88
2023-01-07T14:26:38.018Z,95740.81
2023-01-07T14:29:05.217Z,95743.16
2023-01-07T14:31:06.125Z,95742.53
2023-01-07T14:33:07.642Z,95740.22
2023-01-07T14:35:10.007Z,95740.47
2023-01-07T14:37:18.285Z,95739.38
2023-01-07T14:39:32.815Z,95747.38
2023-01-07T14:41:31.425Z,95742.13
2023-01-07T14:44:01.386Z,95738.22
2023-01-07T14:45:59.595Z,95741.38
2023-01-07T14:48:02.251Z,95740.88
2023-01-07T14:50:20.425Z,95745.09
2023-01-07T14:52:36.144Z,95747.50
2023-01-07T14:55:00.805Z,95744.59
2023-01-07T14:57:10.924Z,95750.16
2023-01-07T14:59:23.529Z,95749.91
2023-01-07T15:01:45.502Z,95746.69
2023-01-07T15:04:18.977Z,95752.13
2023-01-07T15:06:30.380Z,95751.63
2023-01-07T15:09:04.691Z,95755.41
2023-01-07T15:11:23.475Z,95754.97
2023-01-07T15:13:53.844Z,95750.88
2023-01-07T15:16:02.579Z,95748.97
2023-01-07T15:18:01.737Z,95746.88
2023-01-07T15:20:05.765Z,95750.84
2023-01-07T15:22:28.422Z,95750.72
2023-01-07T15:24:36.264Z,95752.75
2023-01-07T15:26:43.946Z,95746.09
2023-01-07T15:28:50.253Z,95756.19
2023-01-07T15:30:59.371Z,95759.78
2023-01-07T15:33:06.139Z,95751.41
2023-01-07T15:35:23.431Z,95758.50
2023-01-07T15:37:22.390Z,95756.25
2023-01-07T15:39:25.118Z,95761.16
2023-01-07T15:41:34.037Z,95766.09
2023-01-07T15:43:35.358Z,95754.25
2023-01-07T15:45:35.749Z,95760.03
2023-01-07T15:47:41.480Z,95756.19
2023-01-07T15:49:43.339Z,95764.59
2023-01-07T15:51:45.024Z,95759.00
2023-01-07T15:53:55.590Z,95762.25
2023-01-07T15:55:59.674Z,95763.75
2023-01-07T15:58:05.740Z,95768.25
2023-01-07T16:00:11.647Z,95753.47
2023-01-07T16:02:24.721Z,95763.38
2023-01-07T16:04:28.772Z,95761.59
2023-01-07T16:06:36.124Z,95757.31
2023-01-07T16:08:36.069Z,95765.84
2023-01-07T16:10:40.849Z,95764.63
2023-01-07T16:12:49.567Z,95768.00
2023-01-07T16:14:48.366Z,95760.50
2023-01-07T16:16:46.935Z,95766.28
2023-01-07T16:18:56.029Z,95761.53
2023-01-07T16:20:58.475Z,95758.63
2023-01-07T16:23:12.899Z,95754.13
2023-01-07T16:25:21.955Z,95753.41
2023-01-07T16:27:29.489Z,95763.19
2023-01-07T16:29:29.743Z,95750.75
2023-01-07T16:31:31.337Z,95757.41
2023-01-07T16:33:33.833Z,95751.53
2023-01-07T16:35:38.516Z,95751.03
2023-01-07T16:37:40.519Z,95749.38
2023-01-07T16:39:44.504Z,95761.53
2023-01-07T16:41:44.813Z,95762.34
2023-01-07T16:43:45.474Z,95771.34
2023-01-07T16:45:43.659Z,95767.38
2023-01-07T16:47:42.110Z,95762.28
2023-01-07T16:49:41.080Z,95759.50
2023-01-07T16:51:43.841Z,95772.09
2023-01-07T16:53:42.337Z,95762.94
2023-01-07T16:55:48.650Z,95771.94
2023-01-07T16:57:48.499Z,95775.72
2023-01-07T16:59:53.782Z,95768.72
2023-01-07T17:01:52.766Z,95776.53
2023-01-07T17:03:56.920Z,95770.66
2023-01-07T17:06:05.036Z,95784.03
2023-01-07T17:08:06.677Z,95783.84
2023-01-07T17:10:21.266Z,95778.94
2023-01-07T17:12:30.827Z,95783.25
2023-01-07T17:14:54.875Z,95792.75
2023-01-07T17:17:03.605Z,95781.50
2023-01-07T17:19:24.431Z,95786.75
2023-01-07T17:21:40.326Z,95791.75
2023-01-07T17:23:46.257Z,95778.88
2023-01-07T17:25:44.810Z,95789.06
2023-01-07T17:27:51.575Z,95787.13
2023-01-07T17:29:50.572Z,95794.09
2023-01-07T17:31:50.545Z,95794.50
2023-01-07T17:33:49.628Z,95803.72
2023-01-07T17:35:49.215Z,95797.25
2023-01-07T17:37:50.696Z,95794.56
2023-01-07T17:39:51.292Z,95802.63
2023-01-07T17:42:07.060Z,95804.97
2023-01-07T17:44:09.302Z,95809.91
2023-01-07T17:46:11.258Z,95798.25
2023-01-07T17:48:14.589Z,95802.16
2023-01-07T17:50:15.749Z,95811.38
2023-01-07T17:52:14.606Z,95805.97
2023-01-07T17:54:20.468Z,95804.31
2023-01-07T17:56:28.264Z,95808.00
2023-01-07T17:58:28.987Z,95807.00
2023-01-07T18:00:30.941Z,95804.41
2023-01-07T18:02:33.507Z,95815.81
2023-01-07T18:04:33.644Z,95811.63
2023-01-07T18:06:35.088Z,95812.22
2023-01-07T18:08:33.875Z,95810.16
2023-01-07T18:10:52.394Z,95813.53
2023-01-07T18:12:52.733Z,95814.81
2023-01-07T18:14:51.313Z,95816.03
2023-01-07T18:16:50.651Z,95816.72
2023-01-07T18:18:53.588Z,95823.31
2023-01-07T18:20:54.439Z,95818.63
2023-01-07T18:22:52.794Z,95817.56
2023-01-07T18:24:51.227Z,95813.63
2023-01-07T18:26:52.483Z,95815.50
2023-01-07T18:28:51.913Z,95824.19
2023-01-07T18:30:50.664Z,95818.38
2023-01-07T18:32:51.329Z,95821.81
2023-01-07T18:34:51.083Z,95813.03
2023-01-07T18:36:54.515Z,95820.22
2023-01-07T18:38:53.648Z,95818.81
2023-01-07T18:40:54.119Z,95825.16
2023-01-07T18:42:54.947Z,95826.16
2023-01-07T18:44:53.145Z,95825.03
2023-01-07T18:46:54.680Z,95812.88
2023-01-07T18:48:53.148Z,95813.22
2023-01-07T18:50:51.909Z,95820.25
2023-01-07T18:52:51.534Z,95821.91
2023-01-07T18:54:50.056Z,95822.94
2023-01-07T18:56:51.322Z,95822.06
2023-01-07T18:58:57.193Z,95817.19
2023-01-07T19:01:05.757Z,95822.38
2023-01-07T19:03:04.262Z,95820.88
2023-01-07T19:05:02.858Z,95824.63
2023-01-07T19:07:03.394Z,95830.88
2023-01-07T19:09:03.664Z,95832.22
2023-01-07T19:11:02.453Z,95826.38
2023-01-07T19:13:01.942Z,95829.41
2023-01-07T19:15:01.575Z,95826.81
2023-01-07T19:17:05.072Z,95826.25
2023-01-07T19:19:06.343Z,95821.41
2023-01-07T19:21:09.723Z,95826.38
2023-01-07T19:23:11.011Z,95832.50
2023-01-07T19:25:11.870Z,95816.78
2023-01-07T19:27:10.137Z,95821.09
2023-01-07T19:29:08.588Z,95822.94
2023-01-07T19:31:08.043Z,95828.41
2023-01-07T19:33:06.402Z,95818.97
2023-01-07T19:35:05.344Z,95816.47
2023-01-07T19:37:03.556Z,95825.75
2023-01-07T19:39:01.746Z,95823.56
2023-01-07T19:41:01.387Z,95823.91
2023-01-07T19:42:59.706Z,95827.66
2023-01-07T19:44:57.934Z,95829.44
2023-01-07T19:46:56.242Z,95825.16
2023-01-07T19:48:54.522Z,95828.72
2023-01-07T19:50:57.481Z,95826.88
2023-01-07T19:52:56.205Z,95824.38
2023-01-07T19:54:55.056Z,95824.44
2023-01-07T19:56:56.767Z,95825.53
2023-01-07T19:58:55.592Z,95824.03
2023-01-07T20:00:54.184Z,95824.03
2023-01-07T20:02:52.815Z,95823.19
2023-01-07T20:04:52.954Z,95821.59
2023-01-07T20:06:51.912Z,95829.56
2023-01-07T20:08:50.505Z,95825.53
2023-01-07T20:10:57.007Z,95820.81
2023-01-07T20:12:56.831Z,95824.00
2023-01-07T20:14:58.367Z,95825.63
2023-01-07T20:16:57.845Z,95828.44
2023-01-07T20:18:57.233Z,95830.44
2023-01-07T20:20:59.608Z,95834.09
2023-01-07T20:22:58.769Z,95835.66
2023-01-07T20:24:57.235Z,95834.94
2023-01-07T20:26:59.022Z,95838.34
2023-01-07T20:29:00.448Z,95839.75
2023-01-07T20:30:58.845Z,95844.03
2023-01-07T20:32:59.856Z,95837.16
2023-01-07T20:34:58.557Z,95835.63
2023-01-07T20:36:57.995Z,95842.47
2023-01-07T20:38:58.381Z,95845.16
2023-01-07T20:40:57.185Z,95839.25
2023-01-07T20:42:57.323Z,95850.63
2023-01-07T20:44:57.343Z,95841.50
2023-01-07T20:46:55.633Z,95842.59
2023-01-07T20:48:54.712Z,95844.41
2023-01-07T20:50:57.017Z,95846.28
2023-01-07T20:52:55.916Z,95845.38
2023-01-07T20:54:54.013Z,95840.53
2023-01-07T20:56:52.652Z,95845.72
2023-01-07T20:58:51.543Z,95847.66
2023-01-07T21:00:51.296Z,95859.06
2023-01-07T21:02:50.863Z,95847.91
2023-01-07T21:04:49.665Z,95854.53
2023-01-07T21:06:50.203Z,95846.75
2023-01-07T21:08:50.998Z,95842.41
2023-01-07T21:10:51.046Z,95847.66
2023-01-07T21:12:49.879Z,95840.00
2023-01-07T21:14:48.140Z,95847.78
2023-01-07T21:16:52.501Z,95854.41
2023-01-07T21:18:52.218Z,95851.28
2023-01-07T21:20:53.229Z,95856.84
2023-01-07T21:22:51.835Z,95851.06
2023-01-07T21:24:51.454Z,95845.34
2023-01-07T21:26:50.102Z,95847.88
2023-01-07T21:28:48.549Z,95844.56
2023-01-07T21:30:47.708Z,95847.34
2023-01-07T21:33:08.547Z,95850.97
2023-01-07T21:35:08.917Z,95857.22
2023-01-07T21:37:09.227Z,95849.75
2023-01-07T21:39:08.589Z,95842.88
2023-01-07T21:41:08.376Z,95847.38
2023-01-07T21:43:07.458Z,95847.16
2023-01-07T21:45:09.667Z,95843.75
2023-01-07T21:47:08.536Z,95850.78
2023-01-07T21:49:08.432Z,95843.75
2023-01-07T21:51:10.801Z,95849.97
2023-01-07T21:53:10.079Z,95847.69
2023-01-07T21:55:12.937Z,95848.63
2023-01-07T21:57:11.252Z,95843.59
2023-01-07T21:59:10.405Z,95847.25
2023-01-07T22:01:09.520Z,95850.13
2023-01-07T22:03:08.200Z,95847.78
2023-01-07T22:05:13.049Z,95844.41
2023-01-07T22:07:16.155Z,95836.75
2023-01-07T22:09:16.670Z,95844.88
2023-01-07T22:11:15.382Z,95842.25
2023-01-07T22:13:16.797Z,95839.72
2023-01-07T22:15:15.590Z,95836.50
2023-01-07T22:17:15.199Z,95835.03
2023-01-07T22:19:14.370Z,95835.94
2023-01-07T22:21:13.993Z,95836.91
2023-01-07T22:23:16.780Z,95829.19
2023-01-07T22:25:14.985Z,95832.31
2023-01-07T22:27:13.191Z,95832.44
2023-01-07T22:29:11.924Z,95831.50
2023-01-07T22:31:16.614Z,95837.63
2023-01-07T22:33:14.969Z,95839.09
2023-01-07T22:35:13.247Z,95830.25
2023-01-07T22:37:16.029Z,95833.88
2023-01-07T22:39:19.745Z,95823.13
2023-01-07T22:41:18.881Z,95825.03
2023-01-07T22:43:19.740Z,95826.63
2023-01-07T22:45:23.027Z,95831.88
2023-01-07T22:47:25.575Z,95827.69
2023-01-07T22:49:27.839Z,95822.56
2023-01-07T22:51:31.314Z,95824.94
2023-01-07T22:53:31.357Z,95819.56
2023-01-07T22:55:30.205Z,95824.75
2023-01-07T22:57:30.185Z,95819.56
2023-01-07T22:59:28.803Z,95817.06
2023-01-07T23:01:27.036Z,95810.28
2023-01-07T23:03:26.216Z,95825.81
2023-01-07T23:05:24.638Z,95814.69
2023-01-07T23:07:23.196Z,95817.94
2023-01-07T23:09:22.785Z,95814.63
2023-01-07T23:11:34.957Z,95811.88
2023-01-07T23:13:33.726Z,95819.56
2023-01-07T23:15:31.938Z,95814.50
2023-01-07T23:17:30.193Z,95813.78
2023-01-07T23:19:30.384Z,95817.34
2023-01-07T23:21:31.442Z,95813.22
2023-01-07T23:23:31.761Z,95815.94
2023-01-07T23:25:31.826Z,95813.34
2023-01-07T23:27:29.993Z,95811.56
2023-01-07T23:29:28.369Z,95812.22
2023-01-07T23:31:27.003Z,95807.97
2023-01-07T23:33:25.567Z,95812.59
2023-01-07T23:35:23.993Z,95809.34
2023-01-07T23:37:22.371Z,95806.78
2023-01-07T23:39:20.655Z,95805.94
2023-01-07T23:41:20.506Z,95802.75
2023-01-07T23:43:18.870Z,95802.09
2023-01-07T23:45:17.369Z,95797.94
2023-01-07T23:47:15.676Z,95802.28
2023-01-07T23:49:14.156Z,95798.03
2023-01-07T23:51:14.476Z,95808.50
2023-01-07T23:53:12.756Z,95803.31
2023-01-07T23:55:11.660Z,95804.22
2023-01-07T23:57:11.232Z,95814.63
2023-01-07T23:59:10.676Z,95805.25
